sensor_id;sensor_type;location;lat;lon;timestamp;P1;durP1;ratioP1;P2;durP2;ratioP2
25854;SDS011;13680;49.936;11.344;2022-12-18T00:00:26;21.40;;;8.65;;
25854;SDS011;13680;49.936;11.344;2022-12-18T00:02:52;27.98;;;9.20;;
25854;SDS011;13680;49.936;11.344;2022-12-18T00:05:17;23.13;;;8.80;;
25854;SDS011;13680;49.936;11.344;2022-12-18T00:07:42;21.83;;;7.85;;
25854;SDS011;13680;49.936;11.344;2022-12-18T00:10:07;24.45;;;8.10;;
25854;SDS011;13680;49.936;11.344;2022-12-18T00:12:33;29.88;;;9.27;;
25854;SDS011;13680;49.936;11.344;2022-12-18T00:14:59;29.30;;;8.90;;
25854;SDS011;13680;49.936;11.344;2022-12-18T00:17:24;33.55;;;9.82;;
25854;SDS011;13680;49.936;11.344;2022-12-18T00:19:50;27.13;;;8.20;;
25854;SDS011;13680;49.936;11.344;2022-12-18T00:22:15;30.95;;;9.02;;
25854;SDS011;13680;49.936;11.344;2022-12-18T00:24:43;27.95;;;8.70;;
25854;SDS011;13680;49.936;11.344;2022-12-18T00:27:08;25.88;;;8.55;;
25854;SDS011;13680;49.936;11.344;2022-12-18T00:29:34;26.55;;;8.50;;
25854;SDS011;13680;49.936;11.344;2022-12-18T00:31:59;28.40;;;7.78;;
25854;SDS011;13680;49.936;11.344;2022-12-18T00:34:24;22.90;;;8.38;;
25854;SDS011;13680;49.936;11.344;2022-12-18T00:36:50;22.95;;;7.55;;
25854;SDS011;13680;49.936;11.344;2022-12-18T00:39:15;21.52;;;7.50;;
25854;SDS011;13680;49.936;11.344;2022-12-18T00:41:40;27.00;;;8.93;;
25854;SDS011;13680;49.936;11.344;2022-12-18T00:44:24;23.13;;;8.15;;
25854;SDS011;13680;49.936;11.344;2022-12-18T00:46:50;23.58;;;8.13;;
25854;SDS011;13680;49.936;11.344;2022-12-18T00:49:19;26.33;;;8.88;;
25854;SDS011;13680;49.936;11.344;2022-12-18T00:51:45;24.42;;;9.77;;
25854;SDS011;13680;49.936;11.344;2022-12-18T00:54:10;24.40;;;8.85;;
25854;SDS011;13680;49.936;11.344;2022-12-18T00:56:36;20.38;;;8.05;;
25854;SDS011;13680;49.936;11.344;2022-12-18T00:59:03;19.98;;;7.75;;
25854;SDS011;13680;49.936;11.344;2022-12-18T01:01:28;27.45;;;8.35;;
25854;SDS011;13680;49.936;11.344;2022-12-18T01:03:54;27.67;;;8.77;;
25854;SDS011;13680;49.936;11.344;2022-12-18T01:06:19;26.52;;;8.52;;
25854;SDS011;13680;49.936;11.344;2022-12-18T01:08:44;23.63;;;8.10;;
25854;SDS011;13680;49.936;11.344;2022-12-18T01:11:11;27.25;;;8.27;;
25854;SDS011;13680;49.936;11.344;2022-12-18T01:13:39;28.98;;;8.23;;
25854;SDS011;13680;49.936;11.344;2022-12-18T01:16:04;26.75;;;8.43;;
25854;SDS011;13680;49.936;11.344;2022-12-18T01:18:30;27.17;;;8.82;;
25854;SDS011;13680;49.936;11.344;2022-12-18T01:20:55;26.23;;;9.07;;
25854;SDS011;13680;49.936;11.344;2022-12-18T01:23:20;20.10;;;6.97;;
25854;SDS011;13680;49.936;11.344;2022-12-18T01:25:46;23.08;;;9.02;;
25854;SDS011;13680;49.936;11.344;2022-12-18T01:28:11;27.65;;;8.30;;
25854;SDS011;13680;49.936;11.344;2022-12-18T01:30:37;23.52;;;7.88;;
25854;SDS011;13680;49.936;11.344;2022-12-18T01:33:04;21.13;;;7.55;;
25854;SDS011;13680;49.936;11.344;2022-12-18T01:35:29;21.48;;;7.28;;
25854;SDS011;13680;49.936;11.344;2022-12-18T01:37:55;22.83;;;7.95;;
25854;SDS011;13680;49.936;11.344;2022-12-18T01:40:20;23.00;;;8.77;;
25854;SDS011;13680;49.936;11.344;2022-12-18T01:42:52;25.85;;;7.18;;
25854;SDS011;13680;49.936;11.344;2022-12-18T01:47:54;19.38;;;6.28;;
25854;SDS011;13680;49.936;11.344;2022-12-18T01:50:23;22.10;;;6.63;;
25854;SDS011;13680;49.936;11.344;2022-12-18T01:53:28;21.25;;;8.40;;
25854;SDS011;13680;49.936;11.344;2022-12-18T01:55:56;22.90;;;7.30;;
25854;SDS011;13680;49.936;11.344;2022-12-18T01:58:27;20.92;;;7.00;;
25854;SDS011;13680;49.936;11.344;2022-12-18T02:00:55;22.30;;;7.13;;
25854;SDS011;13680;49.936;11.344;2022-12-18T02:03:20;20.70;;;7.18;;
25854;SDS011;13680;49.936;11.344;2022-12-18T02:05:47;26.02;;;7.60;;
25854;SDS011;13680;49.936;11.344;2022-12-18T02:14:09;28.20;;;7.88;;
25854;SDS011;13680;49.936;11.344;2022-12-18T02:19:27;20.38;;;7.22;;
25854;SDS011;13680;49.936;11.344;2022-12-18T02:27:38;18.42;;;6.95;;
25854;SDS011;13680;49.936;11.344;2022-12-18T02:30:06;18.88;;;6.65;;
25854;SDS011;13680;49.936;11.344;2022-12-18T02:32:37;26.30;;;7.35;;
25854;SDS011;13680;49.936;11.344;2022-12-18T02:35:11;21.98;;;6.90;;
25854;SDS011;13680;49.936;11.344;2022-12-18T02:37:42;21.45;;;6.93;;
25854;SDS011;13680;49.936;11.344;2022-12-18T02:40:10;19.70;;;6.82;;
25854;SDS011;13680;49.936;11.344;2022-12-18T02:42:38;23.73;;;7.97;;
25854;SDS011;13680;49.936;11.344;2022-12-18T02:45:03;21.05;;;7.28;;
25854;SDS011;13680;49.936;11.344;2022-12-18T02:47:31;25.20;;;7.57;;
25854;SDS011;13680;49.936;11.344;2022-12-18T02:50:17;23.13;;;7.57;;
25854;SDS011;13680;49.936;11.344;2022-12-18T02:53:03;21.83;;;8.13;;
25854;SDS011;13680;49.936;11.344;2022-12-18T02:55:41;21.58;;;7.88;;
25854;SDS011;13680;49.936;11.344;2022-12-18T03:00:58;26.42;;;8.52;;
25854;SDS011;13680;49.936;11.344;2022-12-18T03:03:34;22.10;;;7.10;;
25854;SDS011;13680;49.936;11.344;2022-12-18T03:06:06;20.15;;;6.55;;
25854;SDS011;13680;49.936;11.344;2022-12-18T03:08:39;25.65;;;7.95;;
25854;SDS011;13680;49.936;11.344;2022-12-18T03:11:10;21.95;;;7.65;;
25854;SDS011;13680;49.936;11.344;2022-12-18T03:13:44;20.27;;;7.30;;
25854;SDS011;13680;49.936;11.344;2022-12-18T03:16:15;22.52;;;7.43;;
25854;SDS011;13680;49.936;11.344;2022-12-18T03:18:47;24.30;;;7.63;;
25854;SDS011;13680;49.936;11.344;2022-12-18T03:21:17;26.58;;;7.60;;
25854;SDS011;13680;49.936;11.344;2022-12-18T03:23:47;24.15;;;7.22;;
25854;SDS011;13680;49.936;11.344;2022-12-18T03:26:15;22.88;;;8.23;;
25854;SDS011;13680;49.936;11.344;2022-12-18T03:29:05;21.73;;;7.70;;
25854;SDS011;13680;49.936;11.344;2022-12-18T03:31:34;26.40;;;7.43;;
25854;SDS011;13680;49.936;11.344;2022-12-18T03:34:04;26.13;;;7.60;;
25854;SDS011;13680;49.936;11.344;2022-12-18T03:36:38;24.15;;;7.95;;
25854;SDS011;13680;49.936;11.344;2022-12-18T03:39:03;19.83;;;7.40;;
25854;SDS011;13680;49.936;11.344;2022-12-18T03:41:32;19.42;;;7.20;;
25854;SDS011;13680;49.936;11.344;2022-12-18T03:49:57;21.58;;;6.28;;
25854;SDS011;13680;49.936;11.344;2022-12-18T03:52:28;22.02;;;6.88;;
25854;SDS011;13680;49.936;11.344;2022-12-18T03:55:00;26.67;;;7.70;;
25854;SDS011;13680;49.936;11.344;2022-12-18T03:57:28;19.70;;;6.55;;
25854;SDS011;13680;49.936;11.344;2022-12-18T04:00:07;21.65;;;8.00;;
25854;SDS011;13680;49.936;11.344;2022-12-18T04:02:35;15.80;;;6.05;;
25854;SDS011;13680;49.936;11.344;2022-12-18T04:05:05;21.88;;;7.57;;
25854;SDS011;13680;49.936;11.344;2022-12-18T04:07:33;27.73;;;6.88;;
25854;SDS011;13680;49.936;11.344;2022-12-18T04:09:59;22.83;;;8.68;;
25854;SDS011;13680;49.936;11.344;2022-12-18T04:12:26;27.48;;;8.15;;
25854;SDS011;13680;49.936;11.344;2022-12-18T04:14:53;26.55;;;6.85;;
25854;SDS011;13680;49.936;11.344;2022-12-18T04:17:19;25.02;;;7.47;;
25854;SDS011;13680;49.936;11.344;2022-12-18T04:19:45;20.77;;;6.95;;
25854;SDS011;13680;49.936;11.344;2022-12-18T04:22:10;21.08;;;7.18;;
25854;SDS011;13680;49.936;11.344;2022-12-18T04:24:35;23.33;;;7.85;;
25854;SDS011;13680;49.936;11.344;2022-12-18T04:27:01;22.40;;;7.43;;
25854;SDS011;13680;49.936;11.344;2022-12-18T04:29:26;22.10;;;6.90;;
25854;SDS011;13680;49.936;11.344;2022-12-18T04:31:52;23.50;;;7.55;;
25854;SDS011;13680;49.936;11.344;2022-12-18T04:34:17;17.40;;;6.80;;
25854;SDS011;13680;49.936;11.344;2022-12-18T04:36:42;24.00;;;8.07;;
25854;SDS011;13680;49.936;11.344;2022-12-18T04:39:08;23.63;;;7.18;;
25854;SDS011;13680;49.936;11.344;2022-12-18T04:41:33;19.77;;;7.05;;
25854;SDS011;13680;49.936;11.344;2022-12-18T04:43:58;23.02;;;6.90;;
25854;SDS011;13680;49.936;11.344;2022-12-18T04:46:24;21.73;;;7.40;;
25854;SDS011;13680;49.936;11.344;2022-12-18T04:48:49;21.65;;;7.50;;
25854;SDS011;13680;49.936;11.344;2022-12-18T04:51:14;24.13;;;7.05;;
25854;SDS011;13680;49.936;11.344;2022-12-18T04:53:39;23.75;;;8.05;;
25854;SDS011;13680;49.936;11.344;2022-12-18T04:56:09;24.52;;;8.57;;
25854;SDS011;13680;49.936;11.344;2022-12-18T04:58:36;20.83;;;7.90;;
25854;SDS011;13680;49.936;11.344;2022-12-18T05:01:03;20.05;;;7.10;;
25854;SDS011;13680;49.936;11.344;2022-12-18T05:03:28;19.23;;;7.10;;
25854;SDS011;13680;49.936;11.344;2022-12-18T05:05:54;19.30;;;6.88;;
25854;SDS011;13680;49.936;11.344;2022-12-18T05:08:19;23.23;;;7.70;;
25854;SDS011;13680;49.936;11.344;2022-12-18T05:10:44;16.48;;;6.35;;
25854;SDS011;13680;49.936;11.344;2022-12-18T05:13:10;33.55;;;7.63;;
25854;SDS011;13680;49.936;11.344;2022-12-18T05:15:35;27.38;;;8.63;;
25854;SDS011;13680;49.936;11.344;2022-12-18T05:18:01;22.83;;;6.80;;
25854;SDS011;13680;49.936;11.344;2022-12-18T05:20:29;24.65;;;7.75;;
25854;SDS011;13680;49.936;11.344;2022-12-18T05:22:55;20.55;;;6.82;;
25854;SDS011;13680;49.936;11.344;2022-12-18T05:25:21;17.70;;;6.88;;
25854;SDS011;13680;49.936;11.344;2022-12-18T05:27:47;21.13;;;7.32;;
25854;SDS011;13680;49.936;11.344;2022-12-18T05:30:13;18.92;;;6.95;;
25854;SDS011;13680;49.936;11.344;2022-12-18T05:32:39;23.92;;;6.78;;
25854;SDS011;13680;49.936;11.344;2022-12-18T05:35:06;17.88;;;7.20;;
25854;SDS011;13680;49.936;11.344;2022-12-18T05:37:34;17.30;;;7.25;;
25854;SDS011;13680;49.936;11.344;2022-12-18T05:40:00;23.92;;;7.18;;
25854;SDS011;13680;49.936;11.344;2022-12-18T05:42:25;23.17;;;7.72;;
25854;SDS011;13680;49.936;11.344;2022-12-18T05:44:51;19.83;;;6.90;;
25854;SDS011;13680;49.936;11.344;2022-12-18T05:47:16;20.60;;;6.45;;
25854;SDS011;13680;49.936;11.344;2022-12-18T05:49:41;21.00;;;7.15;;
25854;SDS011;13680;49.936;11.344;2022-12-18T05:52:06;22.02;;;6.82;;
25854;SDS011;13680;49.936;11.344;2022-12-18T05:54:32;25.25;;;7.03;;
25854;SDS011;13680;49.936;11.344;2022-12-18T05:56:57;21.13;;;7.38;;
25854;SDS011;13680;49.936;11.344;2022-12-18T05:59:23;21.73;;;7.47;;
25854;SDS011;13680;49.936;11.344;2022-12-18T06:01:49;22.52;;;7.63;;
25854;SDS011;13680;49.936;11.344;2022-12-18T06:04:14;19.58;;;8.23;;
25854;SDS011;13680;49.936;11.344;2022-12-18T06:06:41;30.10;;;7.90;;
25854;SDS011;13680;49.936;11.344;2022-12-18T06:09:06;24.67;;;8.68;;
25854;SDS011;13680;49.936;11.344;2022-12-18T06:11:33;22.77;;;7.50;;
25854;SDS011;13680;49.936;11.344;2022-12-18T06:13:59;21.35;;;6.95;;
25854;SDS011;13680;49.936;11.344;2022-12-18T06:16:26;23.42;;;7.38;;
25854;SDS011;13680;49.936;11.344;2022-12-18T06:18:52;21.73;;;7.18;;
25854;SDS011;13680;49.936;11.344;2022-12-18T06:21:18;28.48;;;8.27;;
25854;SDS011;13680;49.936;11.344;2022-12-18T06:23:43;19.27;;;6.72;;
25854;SDS011;13680;49.936;11.344;2022-12-18T06:26:09;22.13;;;7.50;;
25854;SDS011;13680;49.936;11.344;2022-12-18T06:28:36;27.20;;;8.63;;
25854;SDS011;13680;49.936;11.344;2022-12-18T06:31:05;21.65;;;8.00;;
25854;SDS011;13680;49.936;11.344;2022-12-18T06:33:31;18.70;;;6.72;;
25854;SDS011;13680;49.936;11.344;2022-12-18T06:36:01;21.10;;;7.47;;
25854;SDS011;13680;49.936;11.344;2022-12-18T06:38:30;22.92;;;7.38;;
25854;SDS011;13680;49.936;11.344;2022-12-18T06:40:57;17.85;;;7.43;;
25854;SDS011;13680;49.936;11.344;2022-12-18T06:43:22;31.27;;;8.68;;
25854;SDS011;13680;49.936;11.344;2022-12-18T06:45:47;20.75;;;7.38;;
25854;SDS011;13680;49.936;11.344;2022-12-18T06:48:17;19.70;;;7.97;;
25854;SDS011;13680;49.936;11.344;2022-12-18T06:50:44;19.30;;;7.03;;
25854;SDS011;13680;49.936;11.344;2022-12-18T06:53:09;21.45;;;7.90;;
25854;SDS011;13680;49.936;11.344;2022-12-18T06:55:35;22.17;;;8.70;;
25854;SDS011;13680;49.936;11.344;2022-12-18T06:58:00;22.30;;;8.10;;
25854;SDS011;13680;49.936;11.344;2022-12-18T07:00:25;26.50;;;9.27;;
25854;SDS011;13680;49.936;11.344;2022-12-18T07:02:50;30.63;;;8.50;;
25854;SDS011;13680;49.936;11.344;2022-12-18T07:05:17;24.10;;;8.98;;
25854;SDS011;13680;49.936;11.344;2022-12-18T07:07:42;30.70;;;10.02;;
25854;SDS011;13680;49.936;11.344;2022-12-18T07:10:07;33.40;;;11.80;;
25854;SDS011;13680;49.936;11.344;2022-12-18T07:12:33;39.05;;;13.68;;
25854;SDS011;13680;49.936;11.344;2022-12-18T07:14:59;51.70;;;16.77;;
25854;SDS011;13680;49.936;11.344;2022-12-18T07:17:24;58.55;;;17.50;;
25854;SDS011;13680;49.936;11.344;2022-12-18T07:19:49;51.55;;;15.80;;
25854;SDS011;13680;49.936;11.344;2022-12-18T07:22:15;34.83;;;11.55;;
25854;SDS011;13680;49.936;11.344;2022-12-18T07:24:40;53.90;;;16.33;;
25854;SDS011;13680;49.936;11.344;2022-12-18T07:27:05;47.30;;;13.07;;
25854;SDS011;13680;49.936;11.344;2022-12-18T07:29:30;50.78;;;17.08;;
25854;SDS011;13680;49.936;11.344;2022-12-18T07:31:56;50.85;;;15.80;;
25854;SDS011;13680;49.936;11.344;2022-12-18T07:34:21;49.67;;;15.55;;
25854;SDS011;13680;49.936;11.344;2022-12-18T07:36:47;61.42;;;17.58;;
25854;SDS011;13680;49.936;11.344;2022-12-18T07:39:12;54.50;;;17.77;;
25854;SDS011;13680;49.936;11.344;2022-12-18T07:41:37;47.00;;;13.88;;
25854;SDS011;13680;49.936;11.344;2022-12-18T07:44:03;31.40;;;10.93;;
25854;SDS011;13680;49.936;11.344;2022-12-18T07:46:29;33.45;;;11.35;;
25854;SDS011;13680;49.936;11.344;2022-12-18T07:48:54;36.13;;;11.13;;
25854;SDS011;13680;49.936;11.344;2022-12-18T07:51:19;31.30;;;10.18;;
25854;SDS011;13680;49.936;11.344;2022-12-18T07:53:45;35.60;;;11.20;;
25854;SDS011;13680;49.936;11.344;2022-12-18T07:56:11;38.65;;;12.18;;
25854;SDS011;13680;49.936;11.344;2022-12-18T07:58:37;35.65;;;13.02;;
25854;SDS011;13680;49.936;11.344;2022-12-18T08:01:06;33.90;;;11.95;;
25854;SDS011;13680;49.936;11.344;2022-12-18T08:03:35;40.67;;;15.32;;
25854;SDS011;13680;49.936;11.344;2022-12-18T08:06:02;60.10;;;21.90;;
25854;SDS011;13680;49.936;11.344;2022-12-18T08:08:29;52.20;;;18.15;;
25854;SDS011;13680;49.936;11.344;2022-12-18T08:10:55;46.10;;;14.07;;
25854;SDS011;13680;49.936;11.344;2022-12-18T08:13:21;63.70;;;19.02;;
25854;SDS011;13680;49.936;11.344;2022-12-18T08:15:46;73.15;;;19.92;;
25854;SDS011;13680;49.936;11.344;2022-12-18T08:18:19;84.60;;;27.58;;
25854;SDS011;13680;49.936;11.344;2022-12-18T08:20:45;74.28;;;24.13;;
25854;SDS011;13680;49.936;11.344;2022-12-18T08:23:10;30.35;;;12.60;;
25854;SDS011;13680;49.936;11.344;2022-12-18T08:25:36;32.22;;;13.18;;
25854;SDS011;13680;49.936;11.344;2022-12-18T08:28:01;35.80;;;10.90;;
25854;SDS011;13680;49.936;11.344;2022-12-18T08:30:26;39.92;;;11.90;;
25854;SDS011;13680;49.936;11.344;2022-12-18T08:32:51;31.25;;;10.63;;
25854;SDS011;13680;49.936;11.344;2022-12-18T08:35:18;35.92;;;12.70;;
25854;SDS011;13680;49.936;11.344;2022-12-18T08:37:43;32.67;;;11.75;;
25854;SDS011;13680;49.936;11.344;2022-12-18T08:40:09;34.45;;;12.55;;
25854;SDS011;13680;49.936;11.344;2022-12-18T08:42:34;28.88;;;11.07;;
25854;SDS011;13680;49.936;11.344;2022-12-18T08:45:19;30.00;;;11.45;;
25854;SDS011;13680;49.936;11.344;2022-12-18T08:47:44;22.48;;;10.43;;
25854;SDS011;13680;49.936;11.344;2022-12-18T08:50:09;47.20;;;13.40;;
25854;SDS011;13680;49.936;11.344;2022-12-18T08:52:36;33.25;;;12.52;;
25854;SDS011;13680;49.936;11.344;2022-12-18T08:55:01;26.77;;;10.73;;
25854;SDS011;13680;49.936;11.344;2022-12-18T08:57:26;34.80;;;11.63;;
25854;SDS011;13680;49.936;11.344;2022-12-18T08:59:51;30.60;;;11.77;;
25854;SDS011;13680;49.936;11.344;2022-12-18T09:02:17;32.72;;;12.27;;
25854;SDS011;13680;49.936;11.344;2022-12-18T09:04:43;33.72;;;11.80;;
25854;SDS011;13680;49.936;11.344;2022-12-18T09:07:12;40.30;;;13.07;;
25854;SDS011;13680;49.936;11.344;2022-12-18T09:09:37;32.83;;;13.25;;
25854;SDS011;13680;49.936;11.344;2022-12-18T09:12:03;33.00;;;13.55;;
25854;SDS011;13680;49.936;11.344;2022-12-18T09:14:28;40.90;;;14.48;;
25854;SDS011;13680;49.936;11.344;2022-12-18T09:16:53;37.22;;;15.55;;
25854;SDS011;13680;49.936;11.344;2022-12-18T09:19:19;36.70;;;15.07;;
25854;SDS011;13680;49.936;11.344;2022-12-18T09:21:44;42.53;;;18.05;;
25854;SDS011;13680;49.936;11.344;2022-12-18T09:24:11;46.80;;;18.10;;
25854;SDS011;13680;49.936;11.344;2022-12-18T09:26:38;42.90;;;18.67;;
25854;SDS011;13680;49.936;11.344;2022-12-18T09:29:03;45.10;;;19.30;;
25854;SDS011;13680;49.936;11.344;2022-12-18T09:31:29;49.70;;;19.92;;
25854;SDS011;13680;49.936;11.344;2022-12-18T09:33:55;53.22;;;23.17;;
25854;SDS011;13680;49.936;11.344;2022-12-18T09:36:21;53.90;;;23.60;;
25854;SDS011;13680;49.936;11.344;2022-12-18T09:38:46;54.20;;;25.65;;
25854;SDS011;13680;49.936;11.344;2022-12-18T09:41:24;59.30;;;25.02;;
25854;SDS011;13680;49.936;11.344;2022-12-18T09:44:05;52.35;;;22.60;;
25854;SDS011;13680;49.936;11.344;2022-12-18T09:46:40;57.80;;;23.48;;
25854;SDS011;13680;49.936;11.344;2022-12-18T09:49:18;49.90;;;22.08;;
25854;SDS011;13680;49.936;11.344;2022-12-18T09:54:38;48.28;;;21.75;;
25854;SDS011;13680;49.936;11.344;2022-12-18T09:57:05;57.25;;;23.95;;
25854;SDS011;13680;49.936;11.344;2022-12-18T09:59:32;52.63;;;24.20;;
25854;SDS011;13680;49.936;11.344;2022-12-18T10:02:22;43.53;;;21.23;;
25854;SDS011;13680;49.936;11.344;2022-12-18T10:04:57;42.53;;;20.77;;
25854;SDS011;13680;49.936;11.344;2022-12-18T10:07:40;42.63;;;18.30;;
25854;SDS011;13680;49.936;11.344;2022-12-18T10:10:47;35.70;;;17.25;;
25854;SDS011;13680;49.936;11.344;2022-12-18T10:13:25;36.55;;;19.40;;
25854;SDS011;13680;49.936;11.344;2022-12-18T10:18:49;33.92;;;14.82;;
25854;SDS011;13680;49.936;11.344;2022-12-18T10:21:19;30.13;;;14.05;;
25854;SDS011;13680;49.936;11.344;2022-12-18T10:23:55;29.30;;;14.00;;
25854;SDS011;13680;49.936;11.344;2022-12-18T10:26:38;29.92;;;13.13;;
25854;SDS011;13680;49.936;11.344;2022-12-18T10:29:10;34.65;;;13.75;;
25854;SDS011;13680;49.936;11.344;2022-12-18T10:31:37;25.15;;;11.73;;
25854;SDS011;13680;49.936;11.344;2022-12-18T10:34:02;32.38;;;14.40;;
25854;SDS011;13680;49.936;11.344;2022-12-18T10:36:28;28.75;;;12.85;;
25854;SDS011;13680;49.936;11.344;2022-12-18T10:38:54;33.28;;;13.15;;
25854;SDS011;13680;49.936;11.344;2022-12-18T10:41:39;31.83;;;13.48;;
25854;SDS011;13680;49.936;11.344;2022-12-18T10:44:18;30.10;;;12.05;;
25854;SDS011;13680;49.936;11.344;2022-12-18T10:46:46;31.92;;;13.52;;
25854;SDS011;13680;49.936;11.344;2022-12-18T10:49:18;27.20;;;12.35;;
25854;SDS011;13680;49.936;11.344;2022-12-18T10:51:46;31.75;;;12.48;;
25854;SDS011;13680;49.936;11.344;2022-12-18T10:54:14;27.10;;;12.07;;
25854;SDS011;13680;49.936;11.344;2022-12-18T10:56:42;27.55;;;11.55;;
25854;SDS011;13680;49.936;11.344;2022-12-18T10:59:08;23.20;;;10.38;;
25854;SDS011;13680;49.936;11.344;2022-12-18T11:01:49;26.85;;;12.05;;
25854;SDS011;13680;49.936;11.344;2022-12-18T11:04:23;27.13;;;11.38;;
25854;SDS011;13680;49.936;11.344;2022-12-18T11:09:31;21.35;;;9.93;;
25854;SDS011;13680;49.936;11.344;2022-12-18T11:11:58;22.90;;;10.57;;
25854;SDS011;13680;49.936;11.344;2022-12-18T11:16:56;27.13;;;9.90;;
25854;SDS011;13680;49.936;11.344;2022-12-18T11:22:00;24.13;;;10.63;;
25854;SDS011;13680;49.936;11.344;2022-12-18T11:27:03;23.02;;;10.25;;
25854;SDS011;13680;49.936;11.344;2022-12-18T11:29:32;19.70;;;9.00;;
25854;SDS011;13680;49.936;11.344;2022-12-18T11:32:47;21.20;;;9.32;;
25854;SDS011;13680;49.936;11.344;2022-12-18T11:35:03;19.10;;;9.65;;
25854;SDS011;13680;49.936;11.344;2022-12-18T11:37:54;18.08;;;9.55;;
25854;SDS011;13680;49.936;11.344;2022-12-18T11:40:27;17.40;;;8.95;;
25854;SDS011;13680;49.936;11.344;2022-12-18T11:43:01;18.52;;;8.15;;
25854;SDS011;13680;49.936;11.344;2022-12-18T11:45:33;17.60;;;8.90;;
25854;SDS011;13680;49.936;11.344;2022-12-18T11:48:03;17.70;;;8.65;;
25854;SDS011;13680;49.936;11.344;2022-12-18T11:50:47;16.67;;;8.57;;
25854;SDS011;13680;49.936;11.344;2022-12-18T11:53:25;17.87;;;7.87;;
25854;SDS011;13680;49.936;11.344;2022-12-18T11:55:56;16.48;;;7.80;;
25854;SDS011;13680;49.936;11.344;2022-12-18T12:06:32;21.77;;;8.70;;
25854;SDS011;13680;49.936;11.344;2022-12-18T12:09:31;19.00;;;8.93;;
25854;SDS011;13680;49.936;11.344;2022-12-18T12:15:02;17.10;;;7.82;;
25854;SDS011;13680;49.936;11.344;2022-12-18T12:17:49;17.88;;;8.35;;
25854;SDS011;13680;49.936;11.344;2022-12-18T12:20:25;18.27;;;8.85;;
25854;SDS011;13680;49.936;11.344;2022-12-18T12:25:50;21.33;;;8.50;;
25854;SDS011;13680;49.936;11.344;2022-12-18T12:28:31;16.70;;;8.13;;
25854;SDS011;13680;49.936;11.344;2022-12-18T12:32:05;17.90;;;8.15;;
25854;SDS011;13680;49.936;11.344;2022-12-18T12:34:11;22.60;;;8.60;;
25854;SDS011;13680;49.936;11.344;2022-12-18T12:39:40;19.50;;;8.23;;
25854;SDS011;13680;49.936;11.344;2022-12-18T12:42:15;17.02;;;7.97;;
25854;SDS011;13680;49.936;11.344;2022-12-18T12:45:07;19.10;;;8.43;;
25854;SDS011;13680;49.936;11.344;2022-12-18T12:47:43;17.45;;;8.30;;
25854;SDS011;13680;49.936;11.344;2022-12-18T12:50:14;22.92;;;9.57;;
25854;SDS011;13680;49.936;11.344;2022-12-18T12:52:51;18.88;;;8.52;;
25854;SDS011;13680;49.936;11.344;2022-12-18T12:55:22;18.33;;;8.30;;
25854;SDS011;13680;49.936;11.344;2022-12-18T12:58:02;19.70;;;8.85;;
25854;SDS011;13680;49.936;11.344;2022-12-18T13:03:35;17.85;;;8.50;;
25854;SDS011;13680;49.936;11.344;2022-12-18T13:06:12;22.23;;;9.50;;
25854;SDS011;13680;49.936;11.344;2022-12-18T13:08:59;20.50;;;8.82;;
25854;SDS011;13680;49.936;11.344;2022-12-18T13:14:45;19.02;;;8.20;;
25854;SDS011;13680;49.936;11.344;2022-12-18T13:19:48;22.00;;;8.98;;
25854;SDS011;13680;49.936;11.344;2022-12-18T13:22:31;21.00;;;8.77;;
25854;SDS011;13680;49.936;11.344;2022-12-18T13:25:02;19.90;;;8.85;;
25854;SDS011;13680;49.936;11.344;2022-12-18T13:27:55;22.10;;;8.20;;
25854;SDS011;13680;49.936;11.344;2022-12-18T13:36:02;20.67;;;8.55;;
25854;SDS011;13680;49.936;11.344;2022-12-18T13:38:44;22.48;;;8.43;;
25854;SDS011;13680;49.936;11.344;2022-12-18T13:51:26;21.10;;;8.77;;
25854;SDS011;13680;49.936;11.344;2022-12-18T13:53:54;22.83;;;9.32;;
25854;SDS011;13680;49.936;11.344;2022-12-18T13:56:30;20.77;;;8.50;;
25854;SDS011;13680;49.936;11.344;2022-12-18T13:59:33;13.05;;;6.50;;
25854;SDS011;13680;49.936;11.344;2022-12-18T14:01:54;20.25;;;7.95;;
25854;SDS011;13680;49.936;11.344;2022-12-18T14:04:33;23.58;;;8.85;;
25854;SDS011;13680;49.936;11.344;2022-12-18T14:07:06;23.27;;;9.45;;
25854;SDS011;13680;49.936;11.344;2022-12-18T14:09:40;23.27;;;8.70;;
25854;SDS011;13680;49.936;11.344;2022-12-18T14:12:29;22.70;;;9.05;;
25854;SDS011;13680;49.936;11.344;2022-12-18T14:17:52;22.85;;;9.50;;
25854;SDS011;13680;49.936;11.344;2022-12-18T14:20:20;23.05;;;9.82;;
25854;SDS011;13680;49.936;11.344;2022-12-18T14:22:45;25.30;;;9.88;;
25854;SDS011;13680;49.936;11.344;2022-12-18T14:25:20;36.22;;;14.38;;
25854;SDS011;13680;49.936;11.344;2022-12-18T14:28:42;26.48;;;10.57;;
25854;SDS011;13680;49.936;11.344;2022-12-18T14:30:39;24.38;;;9.38;;
25854;SDS011;13680;49.936;11.344;2022-12-18T14:35:41;24.60;;;9.80;;
25854;SDS011;13680;49.936;11.344;2022-12-18T14:38:16;25.92;;;10.93;;
25854;SDS011;13680;49.936;11.344;2022-12-18T14:40:46;23.33;;;11.15;;
25854;SDS011;13680;49.936;11.344;2022-12-18T14:43:11;22.38;;;9.50;;
25854;SDS011;13680;49.936;11.344;2022-12-18T14:45:41;26.58;;;10.98;;
25854;SDS011;13680;49.936;11.344;2022-12-18T14:48:08;24.52;;;10.20;;
25854;SDS011;13680;49.936;11.344;2022-12-18T14:50:34;26.90;;;11.30;;
25854;SDS011;13680;49.936;11.344;2022-12-18T14:53:00;22.83;;;11.52;;
25854;SDS011;13680;49.936;11.344;2022-12-18T14:55:25;27.10;;;10.52;;
25854;SDS011;13680;49.936;11.344;2022-12-18T14:57:51;34.22;;;16.00;;
25854;SDS011;13680;49.936;11.344;2022-12-18T15:00:21;28.73;;;13.32;;
25854;SDS011;13680;49.936;11.344;2022-12-18T15:02:53;21.73;;;9.68;;
25854;SDS011;13680;49.936;11.344;2022-12-18T15:05:26;27.10;;;11.48;;
25854;SDS011;13680;49.936;11.344;2022-12-18T15:07:53;25.58;;;10.57;;
25854;SDS011;13680;49.936;11.344;2022-12-18T15:10:21;24.45;;;10.77;;
25854;SDS011;13680;49.936;11.344;2022-12-18T15:20:33;27.63;;;12.65;;
25854;SDS011;13680;49.936;11.344;2022-12-18T15:23:16;22.40;;;10.40;;
25854;SDS011;13680;49.936;11.344;2022-12-18T15:25:43;22.73;;;9.63;;
25854;SDS011;13680;49.936;11.344;2022-12-18T15:28:15;23.23;;;10.20;;
25854;SDS011;13680;49.936;11.344;2022-12-18T15:30:57;25.77;;;9.65;;
25854;SDS011;13680;49.936;11.344;2022-12-18T15:33:35;23.70;;;10.45;;
25854;SDS011;13680;49.936;11.344;2022-12-18T15:36:03;27.88;;;11.70;;
25854;SDS011;13680;49.936;11.344;2022-12-18T15:38:33;34.65;;;13.73;;
25854;SDS011;13680;49.936;11.344;2022-12-18T15:40:58;27.48;;;10.88;;
25854;SDS011;13680;49.936;11.344;2022-12-18T15:43:24;25.83;;;10.38;;
25854;SDS011;13680;49.936;11.344;2022-12-18T15:46:03;29.77;;;10.90;;
25854;SDS011;13680;49.936;11.344;2022-12-18T15:48:40;22.73;;;9.00;;
25854;SDS011;13680;49.936;11.344;2022-12-18T15:51:11;27.80;;;10.48;;
25854;SDS011;13680;49.936;11.344;2022-12-18T15:53:41;26.10;;;11.32;;
25854;SDS011;13680;49.936;11.344;2022-12-18T15:56:13;24.83;;;9.98;;
25854;SDS011;13680;49.936;11.344;2022-12-18T15:58:59;26.30;;;10.18;;
25854;SDS011;13680;49.936;11.344;2022-12-18T16:01:26;26.05;;;10.95;;
25854;SDS011;13680;49.936;11.344;2022-12-18T16:03:53;25.65;;;10.15;;
25854;SDS011;13680;49.936;11.344;2022-12-18T16:06:19;29.75;;;11.68;;